Time,TemperatureF,DewpointF,PressureIn,WindDirection,WindDirectionDegrees,WindSpeedMPH,WindSpeedGustMPH,Humidity,HourlyPrecipIn,Conditions,Clouds,dailyrainin,SoftwareType,DateUTC
2013-02-03 00:01:00,40.0,39.0,30.24,SSE,158,1.0,3.0,96,0.00,,,0.00,,2013-02-03 08:01:00,
2013-02-03 00:11:00,40.0,39.0,30.24,SSE,158,1.0,3.0,96,0.00,,,0.00,,2013-02-03 08:11:00,
2013-02-03 00:22:00,39.0,38.0,30.24,North,0,0.0,2.0,96,0.00,,,0.00,,2013-02-03 08:22:00,
2013-02-03 00:32:00,39.0,38.0,30.22,South,170,2.0,5.0,96,0.00,,,0.00,,2013-02-03 08:32:00,
2013-02-03 00:41:00,39.0,38.0,30.22,South,170,2.0,5.0,96,0.00,,,0.00,,2013-02-03 08:41:00,
2013-02-03 00:52:00,39.0,38.0,30.22,North,0,0.0,2.0,96,0.00,,,0.00,,2013-02-03 08:52:00,
2013-02-03 01:02:00,39.0,38.0,30.22,ESE,104,3.0,4.0,96,0.00,,,0.00,,2013-02-03 09:02:00,
2013-02-03 01:11:00,39.0,38.0,30.22,ESE,104,3.0,4.0,96,0.00,,,0.00,,2013-02-03 09:11:00,
2013-02-03 01:21:00,39.0,38.0,30.24,North,0,0.0,2.0,97,0.00,,,0.00,,2013-02-03 09:21:00,
2013-02-03 01:31:00,39.0,38.0,30.24,North,0,0.0,3.0,97,0.00,,,0.00,,2013-02-03 09:31:00,
2013-02-03 01:41:00,39.0,38.0,30.24,North,0,0.0,3.0,97,0.00,,,0.00,,2013-02-03 09:41:00,
2013-02-03 01:52:00,39.0,38.0,30.23,North,0,0.0,4.0,97,0.00,,,0.00,,2013-02-03 09:52:00,
2013-02-03 02:01:00,39.0,38.0,30.22,ESE,112,1.0,4.0,97,0.00,,,0.00,,2013-02-03 10:01:00,
2013-02-03 02:11:00,39.0,38.0,30.22,North,0,0.0,3.0,97,0.00,,,0.00,,2013-02-03 10:11:00,
2013-02-03 02:21:00,39.0,38.0,30.22,North,0,0.0,3.0,97,0.00,,,0.00,,2013-02-03 10:21:00,
2013-02-03 02:31:00,39.0,38.0,30.22,North,0,0.0,2.0,97,0.00,,,0.00,,2013-02-03 10:31:00,
2013-02-03 02:41:00,39.0,38.0,30.22,North,0,0.0,2.0,97,0.00,,,0.00,,2013-02-03 10:41:00,
2013-02-03 02:52:00,39.0,38.0,30.23,North,0,0.0,1.0,97,0.00,,,0.00,,2013-02-03 10:52:00,
2013-02-03 03:01:00,39.0,38.0,30.22,North,0,0.0,3.0,97,0.00,,,0.00,,2013-02-03 11:01:00,
2013-02-03 03:11:00,39.0,38.0,30.22,North,0,0.0,3.0,97,0.00,,,0.00,,2013-02-03 11:11:00,
2013-02-03 03:22:00,39.0,38.0,30.22,North,0,0.0,5.0,97,0.00,,,0.00,,2013-02-03 11:22:00,
2013-02-03 03:31:00,40.0,39.0,30.21,South,176,1.0,5.0,97,0.00,,,0.00,,2013-02-03 11:31:00,
2013-02-03 03:41:00,40.0,39.0,30.21,South,176,1.0,5.0,97,0.00,,,0.00,,2013-02-03 11:41:00,
2013-02-03 03:52:00,39.0,38.0,30.20,ESE,110,1.0,5.0,97,0.00,,,0.00,,2013-02-03 11:52:00,
2013-02-03 04:02:00,39.0,38.0,30.20,ESE,104,2.0,4.0,97,0.00,,,0.00,,2013-02-03 12:02:00,
2013-02-03 04:11:00,39.0,38.0,30.20,ESE,104,2.0,4.0,97,0.00,,,0.00,,2013-02-03 12:11:00,
2013-02-03 04:21:00,40.0,39.0,30.21,North,0,0.0,2.0,97,0.00,,,0.00,,2013-02-03 12:21:00,
2013-02-03 04:32:00,40.0,39.0,30.22,North,0,0.0,2.0,98,0.00,,,0.00,,2013-02-03 12:32:00,
2013-02-03 04:42:00,40.0,39.0,30.22,North,0,0.0,2.0,98,0.00,,,0.00,,2013-02-03 12:42:00,
2013-02-03 04:53:00,40.0,39.0,30.22,ESE,122,1.0,3.0,98,0.00,,,0.00,,2013-02-03 12:53:00,
2013-02-03 05:02:00,40.0,39.0,30.22,North,0,0.0,4.0,98,0.00,,,0.00,,2013-02-03 13:02:00,
2013-02-03 05:11:00,41.0,40.0,30.22,SE,131,1.0,2.0,98,0.00,,,0.00,,2013-02-03 13:11:00,
2013-02-03 05:21:00,41.0,40.0,30.22,SE,131,1.0,2.0,98,0.00,,,0.00,,2013-02-03 13:21:00,
2013-02-03 05:31:00,41.0,40.0,30.22,SE,141,1.0,6.0,98,0.00,,,0.00,,2013-02-03 13:31:00,
2013-02-03 05:41:00,41.0,40.0,30.22,SE,141,1.0,6.0,98,0.00,,,0.00,,2013-02-03 13:41:00,
2013-02-03 05:52:00,41.0,40.0,30.22,North,0,0.0,4.0,98,0.00,,,0.00,,2013-02-03 13:52:00,
2013-02-03 06:02:00,40.0,39.0,30.20,SSE,152,1.0,4.0,98,0.00,,,0.00,,2013-02-03 14:02:00,
2013-02-03 06:11:00,40.0,39.0,30.20,SSE,152,1.0,4.0,98,0.00,,,0.00,,2013-02-03 14:11:00,
2013-02-03 06:21:00,40.0,39.0,30.22,North,0,0.0,5.0,98,0.00,,,0.00,,2013-02-03 14:21:00,
2013-02-03 06:31:00,41.0,40.0,30.22,ESE,110,1.0,9.0,98,0.00,,,0.00,,2013-02-03 14:31:00,
2013-02-03 06:42:00,41.0,40.0,30.22,ESE,110,1.0,9.0,98,0.00,,,0.00,,2013-02-03 14:42:00,
2013-02-03 06:52:00,41.0,40.0,30.23,ESE,108,2.0,5.0,98,0.00,,,0.00,,2013-02-03 14:52:00,
2013-02-03 07:02:00,41.0,40.0,30.23,ESE,113,2.0,6.0,98,0.00,,,0.00,,2013-02-03 15:02:00,
2013-02-03 07:11:00,41.0,40.0,30.22,North,0,0.0,5.0,98,0.00,,,0.00,,2013-02-03 15:11:00,
2013-02-03 07:21:00,41.0,40.0,30.22,North,0,0.0,5.0,98,0.00,,,0.00,,2013-02-03 15:21:00,
2013-02-03 07:32:00,41.0,40.0,30.22,South,173,1.0,6.0,98,0.00,,,0.00,,2013-02-03 15:32:00,
2013-02-03 07:41:00,41.0,40.0,30.22,South,173,1.0,6.0,98,0.00,,,0.00,,2013-02-03 15:41:00,
2013-02-03 07:51:00,41.0,40.0,30.22,North,0,0.0,5.0,98,0.00,,,0.00,,2013-02-03 15:51:00,
2013-02-03 08:01:00,41.0,40.0,30.23,ESE,117,1.0,6.0,98,0.00,,,0.00,,2013-02-03 16:01:00,
2013-02-03 08:11:00,41.0,40.0,30.23,ESE,117,1.0,6.0,98,0.00,,,0.00,,2013-02-03 16:11:00,
2013-02-03 08:21:00,41.0,40.0,30.24,North,0,0.0,2.0,98,0.00,,,0.00,,2013-02-03 16:21:00,
2013-02-03 08:31:00,41.0,40.0,30.23,North,0,0.0,5.0,98,0.00,,,0.00,,2013-02-03 16:31:00,
2013-02-03 08:41:00,41.0,40.0,30.23,North,0,0.0,5.0,98,0.00,,,0.00,,2013-02-03 16:41:00,
2013-02-03 08:52:00,41.0,40.0,30.23,SSE,162,1.0,4.0,98,0.00,,,0.00,,2013-02-03 16:52:00,
2013-02-03 09:01:00,42.0,41.0,30.23,North,0,0.0,3.0,98,0.00,,,0.00,,2013-02-03 17:01:00,
2013-02-03 09:11:00,42.0,41.0,30.23,North,0,0.0,3.0,98,0.00,,,0.00,,2013-02-03 17:11:00,
2013-02-03 09:21:00,42.0,41.0,30.24,South,187,1.0,5.0,98,0.00,,,0.00,,2013-02-03 17:21:00,
2013-02-03 09:31:00,42.0,41.0,30.24,SSW,197,3.0,6.0,98,0.00,,,0.00,,2013-02-03 17:31:00,
2013-02-03 09:41:00,42.0,41.0,30.24,SSW,197,3.0,6.0,98,0.00,,,0.00,,2013-02-03 17:41:00,
2013-02-03 09:52:00,43.0,42.0,30.24,South,182,3.0,10.0,98,0.00,,,0.00,,2013-02-03 17:52:00,
2013-02-03 10:01:00,42.0,41.0,30.24,South,180,6.0,11.0,97,0.00,,,0.00,,2013-02-03 18:01:00,
2013-02-03 10:11:00,42.0,41.0,30.24,South,180,6.0,11.0,97,0.00,,,0.00,,2013-02-03 18:11:00,
2013-02-03 10:22:00,43.0,42.0,30.24,SSW,203,5.0,10.0,97,0.00,,,0.00,,2013-02-03 18:22:00,
2013-02-03 10:31:00,43.0,42.0,30.23,South,181,1.0,4.0,97,0.00,,,0.00,,2013-02-03 18:31:00,
2013-02-03 10:41:00,43.0,42.0,30.23,South,181,1.0,4.0,97,0.00,,,0.00,,2013-02-03 18:41:00,
2013-02-03 10:52:00,44.0,43.0,30.24,South,173,4.0,10.0,96,0.00,,,0.00,,2013-02-03 18:52:00,
2013-02-03 11:01:00,43.0,42.0,30.24,South,177,5.0,10.0,95,0.00,,,0.00,,2013-02-03 19:01:00,
2013-02-03 11:11:00,43.0,42.0,30.24,South,177,5.0,10.0,95,0.00,,,0.00,,2013-02-03 19:11:00,
2013-02-03 11:21:00,43.0,42.0,30.24,SW,215,1.0,6.0,95,0.00,,,0.00,,2013-02-03 19:21:00,
2013-02-03 11:31:00,44.0,42.0,30.24,South,183,4.0,7.0,93,0.00,,,0.00,,2013-02-03 19:31:00,
2013-02-03 11:41:00,44.0,42.0,30.24,South,183,4.0,7.0,93,0.00,,,0.00,,2013-02-03 19:41:00,
2013-02-03 11:51:00,44.0,42.0,30.24,South,181,2.0,5.0,92,0.00,,,0.00,,2013-02-03 19:51:00,
2013-02-03 12:01:00,45.0,42.0,30.24,South,171,2.0,6.0,89,0.00,,,0.00,,2013-02-03 20:01:00,
2013-02-03 12:11:00,45.0,42.0,30.24,South,171,2.0,6.0,89,0.00,,,0.00,,2013-02-03 20:11:00,
2013-02-03 12:21:00,45.0,41.0,30.23,South,179,2.0,7.0,86,0.00,,,0.00,,2013-02-03 20:21:00,
2013-02-03 12:31:00,46.0,42.0,30.22,South,177,3.0,11.0,85,0.00,,,0.00,,2013-02-03 20:31:00,
2013-02-03 12:41:00,46.0,42.0,30.22,South,177,3.0,11.0,85,0.00,,,0.00,,2013-02-03 20:41:00,
2013-02-03 12:52:00,46.0,42.0,30.22,South,183,5.0,9.0,85,0.00,,,0.00,,2013-02-03 20:52:00,
2013-02-03 13:02:00,45.0,41.0,30.22,South,182,4.0,10.0,85,0.00,,,0.00,,2013-02-03 21:02:00,
2013-02-03 13:11:00,45.0,41.0,30.22,South,182,4.0,10.0,85,0.00,,,0.00,,2013-02-03 21:11:00,
2013-02-03 13:21:00,45.0,41.0,30.22,South,182,2.0,5.0,86,0.00,,,0.00,,2013-02-03 21:21:00,
2013-02-03 13:31:00,46.0,42.0,30.22,South,183,1.0,5.0,86,0.00,,,0.00,,2013-02-03 21:31:00,
2013-02-03 13:42:00,46.0,42.0,30.22,South,183,1.0,5.0,86,0.00,,,0.00,,2013-02-03 21:42:00,
2013-02-03 13:52:00,46.0,42.0,30.21,North,0,0.0,9.0,86,0.00,,,0.00,,2013-02-03 21:52:00,
2013-02-03 14:01:00,46.0,41.0,30.20,North,0,0.0,7.0,84,0.00,,,0.00,,2013-02-03 22:01:00,
2013-02-03 14:11:00,46.0,41.0,30.20,North,0,0.0,7.0,84,0.00,,,0.00,,2013-02-03 22:11:00,
2013-02-03 14:21:00,47.0,42.0,30.19,South,175,2.0,6.0,83,0.00,,,0.00,,2013-02-03 22:21:00,
2013-02-03 14:31:00,47.0,42.0,30.19,South,189,3.0,5.0,84,0.00,,,0.00,,2013-02-03 22:31:00,
2013-02-03 14:41:00,47.0,42.0,30.19,South,189,3.0,5.0,84,0.00,,,0.00,,2013-02-03 22:41:00,
2013-02-03 14:51:00,47.0,42.0,30.20,South,186,1.0,6.0,84,0.00,,,0.00,,2013-02-03 22:51:00,
2013-02-03 15:01:00,46.0,41.0,30.19,South,171,3.0,7.0,84,0.00,,,0.00,,2013-02-03 23:01:00,
2013-02-03 15:11:00,46.0,41.0,30.19,South,171,3.0,7.0,84,0.00,,,0.00,,2013-02-03 23:11:00,
2013-02-03 15:21:00,47.0,42.0,30.19,South,176,4.0,6.0,84,0.00,,,0.00,,2013-02-03 23:21:00,
2013-02-03 15:32:00,46.0,41.0,30.19,SSW,213,2.0,9.0,84,0.00,,,0.00,,2013-02-03 23:32:00,
2013-02-03 15:41:00,46.0,41.0,30.19,SSW,213,2.0,9.0,84,0.00,,,0.00,,2013-02-03 23:41:00,
2013-02-03 15:52:00,46.0,41.0,30.19,South,181,2.0,6.0,84,0.00,,,0.00,,2013-02-03 23:52:00,
2013-02-03 16:01:00,46.0,41.0,30.19,South,184,4.0,10.0,84,0.00,,,0.00,,2013-02-04 00:01:00,
2013-02-03 16:11:00,46.0,41.0,30.19,South,184,4.0,10.0,84,0.00,,,0.00,,2013-02-04 00:11:00,
2013-02-03 16:21:00,46.0,41.0,30.19,South,184,2.0,8.0,84,0.00,,,0.00,,2013-02-04 00:21:00,
2013-02-03 16:31:00,46.0,41.0,30.19,South,175,3.0,7.0,84,0.00,,,0.00,,2013-02-04 00:31:00,
2013-02-03 16:41:00,46.0,41.0,30.19,South,175,3.0,7.0,84,0.00,,,0.00,,2013-02-04 00:41:00,
2013-02-03 16:51:00,46.0,41.0,30.19,South,187,2.0,11.0,84,0.00,,,0.00,,2013-02-04 00:51:00,
2013-02-03 17:01:00,46.0,41.0,30.19,South,180,2.0,7.0,84,0.00,,,0.00,,2013-02-04 01:01:00,
2013-02-03 17:11:00,46.0,41.0,30.19,South,180,2.0,7.0,84,0.00,,,0.00,,2013-02-04 01:11:00,
2013-02-03 17:21:00,46.0,42.0,30.19,South,181,3.0,10.0,85,0.00,,,0.00,,2013-02-04 01:21:00,
2013-02-03 17:31:00,46.0,42.0,30.19,South,169,4.0,10.0,85,0.00,,,0.00,,2013-02-04 01:31:00,
2013-02-03 17:41:00,46.0,42.0,30.19,South,169,4.0,10.0,85,0.00,,,0.00,,2013-02-04 01:41:00,
2013-02-03 17:51:00,46.0,42.0,30.19,South,182,3.0,9.0,85,0.00,,,0.00,,2013-02-04 01:51:00,
2013-02-03 18:01:00,46.0,42.0,30.19,South,178,2.0,11.0,87,0.00,,,0.00,,2013-02-04 02:01:00,
2013-02-03 18:11:00,46.0,42.0,30.19,South,178,2.0,11.0,87,0.00,,,0.00,,2013-02-04 02:11:00,
2013-02-03 18:21:00,45.0,42.0,30.19,South,175,3.0,9.0,90,0.01,,,0.01,,2013-02-04 02:21:00,
2013-02-03 18:31:00,45.0,42.0,30.18,South,173,2.0,7.0,90,0.01,,,0.01,,2013-02-04 02:31:00,
2013-02-03 18:41:00,45.0,42.0,30.18,South,173,2.0,7.0,90,0.01,,,0.01,,2013-02-04 02:41:00,
2013-02-03 18:52:00,45.0,43.0,30.18,South,180,4.0,9.0,91,0.01,,,0.01,,2013-02-04 02:52:00,
2013-02-03 19:01:00,45.0,43.0,30.18,South,183,5.0,11.0,92,0.02,,,0.02,,2013-02-04 03:01:00,
2013-02-03 19:11:00,45.0,43.0,30.18,SSE,168,5.0,11.0,93,0.02,,,0.03,,2013-02-04 03:11:00,
2013-02-03 19:21:00,45.0,43.0,30.18,SSE,168,5.0,11.0,93,0.02,,,0.03,,2013-02-04 03:21:00,
2013-02-03 19:31:00,45.0,43.0,30.17,South,181,4.0,13.0,94,0.02,,,0.03,,2013-02-04 03:31:00,
2013-02-03 19:41:00,45.0,43.0,30.17,South,181,4.0,13.0,94,0.02,,,0.03,,2013-02-04 03:41:00,
2013-02-03 19:51:00,45.0,43.0,30.17,South,183,6.0,9.0,94,0.02,,,0.03,,2013-02-04 03:51:00,
2013-02-03 20:01:00,45.0,44.0,30.17,South,182,4.0,8.0,95,0.02,,,0.04,,2013-02-04 04:01:00,
2013-02-03 20:11:00,45.0,44.0,30.17,South,182,4.0,8.0,95,0.02,,,0.04,,2013-02-04 04:11:00,
2013-02-03 20:21:00,45.0,44.0,30.16,South,182,2.0,7.0,95,0.02,,,0.04,,2013-02-04 04:21:00,
2013-02-03 20:31:00,44.0,43.0,30.16,SSW,205,3.0,6.0,95,0.01,,,0.04,,2013-02-04 04:31:00,
2013-02-03 20:41:00,44.0,43.0,30.16,SSW,205,3.0,6.0,95,0.01,,,0.04,,2013-02-04 04:41:00,
2013-02-03 20:52:00,44.0,43.0,30.16,SSW,202,1.0,7.0,95,0.01,,,0.04,,2013-02-04 04:52:00,
2013-02-03 21:03:00,44.0,43.0,30.16,SSW,209,4.0,10.0,95,0.00,,,0.04,,2013-02-04 05:03:00,
2013-02-03 21:11:00,44.0,43.0,30.16,SSW,209,4.0,10.0,95,0.00,,,0.04,,2013-02-04 05:11:00,
2013-02-03 21:21:00,44.0,43.0,30.16,SSW,194,2.0,10.0,95,0.00,,,0.04,,2013-02-04 05:21:00,
2013-02-03 21:33:00,44.0,43.0,30.16,SW,218,3.0,10.0,95,0.00,,,0.04,,2013-02-04 05:33:00,
2013-02-03 21:41:00,44.0,43.0,30.16,SW,218,3.0,10.0,95,0.00,,,0.04,,2013-02-04 05:41:00,
2013-02-03 21:52:00,44.0,42.0,30.17,SW,218,7.0,10.0,94,0.00,,,0.04,,2013-02-04 05:52:00,
2013-02-03 22:01:00,44.0,42.0,30.17,SSW,210,4.0,13.0,94,0.00,,,0.04,,2013-02-04 06:01:00,
2013-02-03 22:11:00,44.0,42.0,30.17,SSW,210,4.0,13.0,94,0.00,,,0.04,,2013-02-04 06:11:00,
2013-02-03 22:21:00,44.0,42.0,30.17,SSW,208,3.0,7.0,94,0.00,,,0.04,,2013-02-04 06:21:00,
2013-02-03 22:31:00,44.0,42.0,30.17,SSW,204,2.0,8.0,93,0.00,,,0.04,,2013-02-04 06:31:00,
2013-02-03 22:41:00,44.0,42.0,30.17,SSW,204,2.0,8.0,93,0.00,,,0.04,,2013-02-04 06:41:00,
2013-02-03 22:52:00,44.0,42.0,30.16,SSW,197,5.0,10.0,93,0.00,,,0.04,,2013-02-04 06:52:00,
2013-02-03 23:01:00,44.0,42.0,30.16,SSW,194,3.0,6.0,93,0.00,,,0.04,,2013-02-04 07:01:00,
2013-02-03 23:11:00,44.0,42.0,30.16,SSW,212,3.0,9.0,92,0.00,,,0.04,,2013-02-04 07:11:00,
2013-02-03 23:21:00,44.0,42.0,30.16,SSW,212,3.0,9.0,92,0.00,,,0.04,,2013-02-04 07:21:00,
2013-02-03 23:31:00,44.0,42.0,30.16,SSW,206,3.0,7.0,92,0.00,,,0.04,,2013-02-04 07:31:00,
2013-02-03 23:41:00,44.0,42.0,30.16,SSW,206,3.0,7.0,92,0.00,,,0.04,,2013-02-04 07:41:00,
2013-02-03 23:52:00,44.0,42.0,30.16,SW,230,1.0,7.0,92,0.00,,,0.04,,2013-02-04 07:52:00,